sensor_id;sensor_type;location;lat;lon;timestamp;P1;durP1;ratioP1;P2;durP2;ratioP2
80868;SDS011;70295;40.182;44.498;2023-07-09T00:00:33;12.6;;;7.6;;
80868;SDS011;70295;40.182;44.498;2023-07-09T00:02:32;11.4;;;6.4;;
80868;SDS011;70295;40.182;44.498;2023-07-09T00:04:32;13;;;6.8;;
80868;SDS011;70295;40.182;44.498;2023-07-09T00:06:32;11.5;;;6;;
80868;SDS011;70295;40.182;44.498;2023-07-09T00:08:33;13.7;;;6;;
80868;SDS011;70295;40.182;44.498;2023-07-09T00:10:32;10.3;;;6.1;;
80868;SDS011;70295;40.182;44.498;2023-07-09T00:12:32;9.7;;;5.9;;
80868;SDS011;70295;40.182;44.498;2023-07-09T00:14:32;8.9;;;5.4;;
80868;SDS011;70295;40.182;44.498;2023-07-09T00:16:32;8.9;;;4.9;;
80868;SDS011;70295;40.182;44.498;2023-07-09T00:18:32;9.8;;;5.1;;
80868;SDS011;70295;40.182;44.498;2023-07-09T00:20:32;7.5;;;4.4;;
80868;SDS011;70295;40.182;44.498;2023-07-09T00:22:33;8.2;;;4;;
80868;SDS011;70295;40.182;44.498;2023-07-09T00:24:32;8.2;;;4.4;;
80868;SDS011;70295;40.182;44.498;2023-07-09T00:26:34;8.3;;;4.4;;
80868;SDS011;70295;40.182;44.498;2023-07-09T00:28:32;6.8;;;3.9;;
80868;SDS011;70295;40.182;44.498;2023-07-09T00:30:32;7;;;4.4;;
80868;SDS011;70295;40.182;44.498;2023-07-09T00:32:32;8.8;;;4.2;;
80868;SDS011;70295;40.182;44.498;2023-07-09T00:34:32;8.8;;;4.4;;
80868;SDS011;70295;40.182;44.498;2023-07-09T00:36:33;7.5;;;4.2;;
80868;SDS011;70295;40.182;44.498;2023-07-09T00:38:33;7.9;;;4.2;;
80868;SDS011;70295;40.182;44.498;2023-07-09T00:40:32;7.6;;;4.1;;
80868;SDS011;70295;40.182;44.498;2023-07-09T00:42:32;8.4;;;3.9;;
80868;SDS011;70295;40.182;44.498;2023-07-09T00:44:34;8.4;;;4.3;;
80868;SDS011;70295;40.182;44.498;2023-07-09T00:48:32;8.7;;;4.5;;
80868;SDS011;70295;40.182;44.498;2023-07-09T00:52:38;7.3;;;4.4;;
80868;SDS011;70295;40.182;44.498;2023-07-09T00:56:37;9.7;;;5.1;;
80868;SDS011;70295;40.182;44.498;2023-07-09T00:58:34;7.1;;;4.3;;
80868;SDS011;70295;40.182;44.498;2023-07-09T01:00:36;9.3;;;4.2;;
80868;SDS011;70295;40.182;44.498;2023-07-09T01:02:32;8.8;;;4.9;;
80868;SDS011;70295;40.182;44.498;2023-07-09T01:04:32;8.2;;;4.7;;
80868;SDS011;70295;40.182;44.498;2023-07-09T01:08:34;9.1;;;5.1;;
80868;SDS011;70295;40.182;44.498;2023-07-09T01:10:32;8.9;;;4.7;;
80868;SDS011;70295;40.182;44.498;2023-07-09T01:12:32;9.6;;;4.8;;
80868;SDS011;70295;40.182;44.498;2023-07-09T01:14:32;11;;;5.1;;
80868;SDS011;70295;40.182;44.498;2023-07-09T01:16:36;11.4;;;4.7;;
80868;SDS011;70295;40.182;44.498;2023-07-09T01:18:32;9.1;;;4.5;;
80868;SDS011;70295;40.182;44.498;2023-07-09T01:20:33;9;;;4.6;;
80868;SDS011;70295;40.182;44.498;2023-07-09T01:22:32;11.2;;;4.7;;
80868;SDS011;70295;40.182;44.498;2023-07-09T01:26:32;10.7;;;4.7;;
80868;SDS011;70295;40.182;44.498;2023-07-09T01:28:32;9.3;;;4.6;;
80868;SDS011;70295;40.182;44.498;2023-07-09T01:30:35;8;;;4.1;;
80868;SDS011;70295;40.182;44.498;2023-07-09T01:32:32;8.9;;;4.1;;
80868;SDS011;70295;40.182;44.498;2023-07-09T01:34:33;9.4;;;4.6;;
80868;SDS011;70295;40.182;44.498;2023-07-09T01:36:32;8.1;;;4.7;;
80868;SDS011;70295;40.182;44.498;2023-07-09T01:38:33;11.3;;;5;;
80868;SDS011;70295;40.182;44.498;2023-07-09T01:40:32;8.2;;;4.6;;
80868;SDS011;70295;40.182;44.498;2023-07-09T01:42:33;10.1;;;4.3;;
80868;SDS011;70295;40.182;44.498;2023-07-09T01:44:32;9;;;4.8;;
80868;SDS011;70295;40.182;44.498;2023-07-09T01:46:32;9.4;;;4.3;;
80868;SDS011;70295;40.182;44.498;2023-07-09T01:48:32;7;;;4.4;;
80868;SDS011;70295;40.182;44.498;2023-07-09T01:50:32;7.7;;;4.6;;
80868;SDS011;70295;40.182;44.498;2023-07-09T01:52:34;8.5;;;4.8;;
80868;SDS011;70295;40.182;44.498;2023-07-09T01:54:33;9.7;;;5;;
80868;SDS011;70295;40.182;44.498;2023-07-09T01:56:32;8.8;;;5;;
80868;SDS011;70295;40.182;44.498;2023-07-09T01:58:33;10.2;;;4.9;;
80868;SDS011;70295;40.182;44.498;2023-07-09T02:00:33;9.9;;;4.6;;
80868;SDS011;70295;40.182;44.498;2023-07-09T02:02:32;7.9;;;5;;
80868;SDS011;70295;40.182;44.498;2023-07-09T02:04:32;8.5;;;4.7;;
80868;SDS011;70295;40.182;44.498;2023-07-09T02:06:32;8.7;;;4.7;;
80868;SDS011;70295;40.182;44.498;2023-07-09T02:08:32;8.3;;;4.5;;
80868;SDS011;70295;40.182;44.498;2023-07-09T02:10:32;8.2;;;4.8;;
80868;SDS011;70295;40.182;44.498;2023-07-09T02:12:32;7.9;;;4.9;;
80868;SDS011;70295;40.182;44.498;2023-07-09T02:14:32;9.7;;;4.9;;
80868;SDS011;70295;40.182;44.498;2023-07-09T02:16:32;9.3;;;4.8;;
80868;SDS011;70295;40.182;44.498;2023-07-09T02:18:32;8.5;;;5.2;;
80868;SDS011;70295;40.182;44.498;2023-07-09T02:20:32;9;;;5.2;;
80868;SDS011;70295;40.182;44.498;2023-07-09T02:22:33;8.9;;;4.9;;
80868;SDS011;70295;40.182;44.498;2023-07-09T02:24:33;10.2;;;5.2;;
80868;SDS011;70295;40.182;44.498;2023-07-09T02:26:32;9;;;5.4;;
80868;SDS011;70295;40.182;44.498;2023-07-09T02:28:32;11.1;;;6.2;;
80868;SDS011;70295;40.182;44.498;2023-07-09T02:30:32;8.4;;;5.4;;
80868;SDS011;70295;40.182;44.498;2023-07-09T02:32:32;9.5;;;5.7;;
80868;SDS011;70295;40.182;44.498;2023-07-09T02:34:33;11.6;;;6.5;;
80868;SDS011;70295;40.182;44.498;2023-07-09T02:36:32;13.1;;;8.5;;
80868;SDS011;70295;40.182;44.498;2023-07-09T02:38:32;12.2;;;7.2;;
80868;SDS011;70295;40.182;44.498;2023-07-09T02:40:32;12.3;;;7.3;;
80868;SDS011;70295;40.182;44.498;2023-07-09T02:42:32;13.2;;;6.6;;
80868;SDS011;70295;40.182;44.498;2023-07-09T02:44:32;14.2;;;8.1;;
80868;SDS011;70295;40.182;44.498;2023-07-09T02:46:33;12;;;7.9;;
80868;SDS011;70295;40.182;44.498;2023-07-09T02:48:32;13.9;;;7.3;;
80868;SDS011;70295;40.182;44.498;2023-07-09T02:50:32;17;;;7.7;;
80868;SDS011;70295;40.182;44.498;2023-07-09T02:52:32;10.9;;;7.5;;
80868;SDS011;70295;40.182;44.498;2023-07-09T02:54:32;12.2;;;8;;
80868;SDS011;70295;40.182;44.498;2023-07-09T02:56:32;15;;;9.1;;
80868;SDS011;70295;40.182;44.498;2023-07-09T02:58:32;16.8;;;9.9;;
80868;SDS011;70295;40.182;44.498;2023-07-09T03:00:32;18.7;;;10.5;;
80868;SDS011;70295;40.182;44.498;2023-07-09T03:02:32;18.3;;;10.1;;
80868;SDS011;70295;40.182;44.498;2023-07-09T03:04:33;18.7;;;10.7;;
80868;SDS011;70295;40.182;44.498;2023-07-09T03:06:34;15.5;;;9.2;;
80868;SDS011;70295;40.182;44.498;2023-07-09T03:08:32;19.5;;;10.4;;
80868;SDS011;70295;40.182;44.498;2023-07-09T03:10:32;19.2;;;10.1;;
80868;SDS011;70295;40.182;44.498;2023-07-09T03:12:32;16.5;;;10.2;;
80868;SDS011;70295;40.182;44.498;2023-07-09T03:14:32;16;;;10.2;;
80868;SDS011;70295;40.182;44.498;2023-07-09T03:16:34;14.5;;;10.5;;
80868;SDS011;70295;40.182;44.498;2023-07-09T03:18:32;14.5;;;9.4;;
80868;SDS011;70295;40.182;44.498;2023-07-09T03:20:32;18.2;;;10.4;;
80868;SDS011;70295;40.182;44.498;2023-07-09T03:22:32;19.4;;;10.4;;
80868;SDS011;70295;40.182;44.498;2023-07-09T03:24:32;16.6;;;10.6;;
80868;SDS011;70295;40.182;44.498;2023-07-09T03:26:32;18.1;;;10.4;;
80868;SDS011;70295;40.182;44.498;2023-07-09T03:28:33;18.6;;;11;;
80868;SDS011;70295;40.182;44.498;2023-07-09T03:30:32;17;;;12.1;;
80868;SDS011;70295;40.182;44.498;2023-07-09T03:32:32;16.9;;;10.9;;
80868;SDS011;70295;40.182;44.498;2023-07-09T03:34:32;18.5;;;11.2;;
80868;SDS011;70295;40.182;44.498;2023-07-09T03:36:32;17.5;;;11;;
80868;SDS011;70295;40.182;44.498;2023-07-09T03:38:33;19;;;11.6;;
80868;SDS011;70295;40.182;44.498;2023-07-09T03:40:32;19;;;12.6;;
80868;SDS011;70295;40.182;44.498;2023-07-09T03:42:32;16.5;;;11.7;;
80868;SDS011;70295;40.182;44.498;2023-07-09T03:44:32;19.6;;;11.9;;
80868;SDS011;70295;40.182;44.498;2023-07-09T03:46:32;17.4;;;12.2;;
80868;SDS011;70295;40.182;44.498;2023-07-09T03:48:32;16.3;;;9.9;;
80868;SDS011;70295;40.182;44.498;2023-07-09T03:50:32;23.1;;;14.4;;
80868;SDS011;70295;40.182;44.498;2023-07-09T03:52:32;23.6;;;15.5;;
80868;SDS011;70295;40.182;44.498;2023-07-09T03:54:32;23.2;;;14.2;;
80868;SDS011;70295;40.182;44.498;2023-07-09T03:56:32;21.5;;;13.6;;
80868;SDS011;70295;40.182;44.498;2023-07-09T03:58:32;21.7;;;13;;
80868;SDS011;70295;40.182;44.498;2023-07-09T04:00:32;17.5;;;9.6;;
80868;SDS011;70295;40.182;44.498;2023-07-09T04:02:33;15.5;;;9.7;;
80868;SDS011;70295;40.182;44.498;2023-07-09T04:04:32;15.8;;;9;;
80868;SDS011;70295;40.182;44.498;2023-07-09T04:06:32;18.5;;;10.1;;
80868;SDS011;70295;40.182;44.498;2023-07-09T04:08:32;16.6;;;10;;
80868;SDS011;70295;40.182;44.498;2023-07-09T04:10:32;16.5;;;10.1;;
80868;SDS011;70295;40.182;44.498;2023-07-09T04:12:32;21.6;;;13.3;;
80868;SDS011;70295;40.182;44.498;2023-07-09T04:14:32;21.7;;;12.9;;
80868;SDS011;70295;40.182;44.498;2023-07-09T04:16:32;21.8;;;12.5;;
80868;SDS011;70295;40.182;44.498;2023-07-09T04:18:32;24.1;;;12.4;;
80868;SDS011;70295;40.182;44.498;2023-07-09T04:20:32;22.5;;;11.9;;
80868;SDS011;70295;40.182;44.498;2023-07-09T04:22:32;23.8;;;12.9;;
80868;SDS011;70295;40.182;44.498;2023-07-09T04:24:33;22.5;;;13.5;;
80868;SDS011;70295;40.182;44.498;2023-07-09T04:26:32;24.1;;;12.8;;
80868;SDS011;70295;40.182;44.498;2023-07-09T04:28:33;21.4;;;13;;
80868;SDS011;70295;40.182;44.498;2023-07-09T04:30:32;25.6;;;14.2;;
80868;SDS011;70295;40.182;44.498;2023-07-09T04:32:33;23.6;;;13.1;;
80868;SDS011;70295;40.182;44.498;2023-07-09T04:34:32;21.3;;;13.2;;
80868;SDS011;70295;40.182;44.498;2023-07-09T04:36:33;21.1;;;12.9;;
80868;SDS011;70295;40.182;44.498;2023-07-09T04:38:32;21.4;;;13.2;;
80868;SDS011;70295;40.182;44.498;2023-07-09T04:40:32;23;;;13.9;;
80868;SDS011;70295;40.182;44.498;2023-07-09T04:42:32;22.7;;;13.3;;
80868;SDS011;70295;40.182;44.498;2023-07-09T04:44:32;21.1;;;13.6;;
80868;SDS011;70295;40.182;44.498;2023-07-09T04:46:32;18.7;;;11.5;;
80868;SDS011;70295;40.182;44.498;2023-07-09T04:48:32;17.6;;;10.8;;
80868;SDS011;70295;40.182;44.498;2023-07-09T04:50:32;15.7;;;10.8;;
80868;SDS011;70295;40.182;44.498;2023-07-09T04:52:32;21.8;;;11.4;;
80868;SDS011;70295;40.182;44.498;2023-07-09T04:54:32;19.1;;;11.7;;
80868;SDS011;70295;40.182;44.498;2023-07-09T04:56:32;18;;;10.7;;
80868;SDS011;70295;40.182;44.498;2023-07-09T04:58:33;21.9;;;12.6;;
80868;SDS011;70295;40.182;44.498;2023-07-09T05:00:32;21.5;;;12.8;;
80868;SDS011;70295;40.182;44.498;2023-07-09T05:02:32;20.7;;;11.9;;
80868;SDS011;70295;40.182;44.498;2023-07-09T05:04:32;20.2;;;11.4;;
80868;SDS011;70295;40.182;44.498;2023-07-09T05:06:32;20.9;;;10.5;;
80868;SDS011;70295;40.182;44.498;2023-07-09T05:08:32;18.2;;;8.9;;
80868;SDS011;70295;40.182;44.498;2023-07-09T05:10:33;16.5;;;9.4;;
80868;SDS011;70295;40.182;44.498;2023-07-09T05:12:32;17.6;;;9;;
80868;SDS011;70295;40.182;44.498;2023-07-09T05:14:32;16.4;;;9;;
80868;SDS011;70295;40.182;44.498;2023-07-09T05:16:32;14.6;;;8.3;;
80868;SDS011;70295;40.182;44.498;2023-07-09T05:18:32;12.7;;;8;;
80868;SDS011;70295;40.182;44.498;2023-07-09T05:20:32;13.5;;;8.2;;
80868;SDS011;70295;40.182;44.498;2023-07-09T05:22:32;13.9;;;8.3;;
80868;SDS011;70295;40.182;44.498;2023-07-09T05:24:32;13.4;;;8.4;;
80868;SDS011;70295;40.182;44.498;2023-07-09T05:26:33;13.8;;;8.1;;
80868;SDS011;70295;40.182;44.498;2023-07-09T05:28:33;14.7;;;7.6;;
80868;SDS011;70295;40.182;44.498;2023-07-09T05:30:32;12.8;;;7.3;;
80868;SDS011;70295;40.182;44.498;2023-07-09T05:32:32;10.2;;;6.4;;
80868;SDS011;70295;40.182;44.498;2023-07-09T05:34:32;11.1;;;6.4;;
80868;SDS011;70295;40.182;44.498;2023-07-09T05:36:33;11.5;;;6.8;;
80868;SDS011;70295;40.182;44.498;2023-07-09T05:38:32;11.9;;;6.3;;
80868;SDS011;70295;40.182;44.498;2023-07-09T05:40:32;10.4;;;6.3;;
80868;SDS011;70295;40.182;44.498;2023-07-09T05:42:32;13.8;;;6.4;;
80868;SDS011;70295;40.182;44.498;2023-07-09T05:44:32;12.6;;;5.9;;
80868;SDS011;70295;40.182;44.498;2023-07-09T05:46:34;11.9;;;5.8;;
80868;SDS011;70295;40.182;44.498;2023-07-09T05:48:32;9.9;;;5.7;;
80868;SDS011;70295;40.182;44.498;2023-07-09T05:50:34;10.1;;;6;;
80868;SDS011;70295;40.182;44.498;2023-07-09T05:52:32;10.8;;;5.7;;
80868;SDS011;70295;40.182;44.498;2023-07-09T05:54:33;9.5;;;5.8;;
80868;SDS011;70295;40.182;44.498;2023-07-09T05:56:32;14.5;;;6;;
80868;SDS011;70295;40.182;44.498;2023-07-09T05:58:32;8.6;;;5.3;;
80868;SDS011;70295;40.182;44.498;2023-07-09T06:00:32;10;;;5.8;;
80868;SDS011;70295;40.182;44.498;2023-07-09T06:02:32;9.7;;;5.7;;
80868;SDS011;70295;40.182;44.498;2023-07-09T06:04:32;10.7;;;6;;
80868;SDS011;70295;40.182;44.498;2023-07-09T06:06:32;8.4;;;5.7;;
80868;SDS011;70295;40.182;44.498;2023-07-09T06:08:32;11.5;;;5.8;;
80868;SDS011;70295;40.182;44.498;2023-07-09T06:10:32;8.5;;;5.9;;
80868;SDS011;70295;40.182;44.498;2023-07-09T06:12:32;9.8;;;5.9;;
80868;SDS011;70295;40.182;44.498;2023-07-09T06:14:33;9.5;;;5.2;;
80868;SDS011;70295;40.182;44.498;2023-07-09T06:16:32;9.6;;;5.8;;
80868;SDS011;70295;40.182;44.498;2023-07-09T06:18:32;8.2;;;5.4;;
80868;SDS011;70295;40.182;44.498;2023-07-09T06:20:32;10.1;;;5.9;;
80868;SDS011;70295;40.182;44.498;2023-07-09T06:22:32;9.8;;;5.7;;
80868;SDS011;70295;40.182;44.498;2023-07-09T06:24:32;11.7;;;5.8;;
80868;SDS011;70295;40.182;44.498;2023-07-09T06:26:32;9.9;;;5.7;;
80868;SDS011;70295;40.182;44.498;2023-07-09T06:28:32;10.2;;;6.3;;
80868;SDS011;70295;40.182;44.498;2023-07-09T06:30:32;11.1;;;5.9;;
80868;SDS011;70295;40.182;44.498;2023-07-09T06:32:32;8.9;;;6.2;;
80868;SDS011;70295;40.182;44.498;2023-07-09T06:34:32;9.4;;;6.2;;
80868;SDS011;70295;40.182;44.498;2023-07-09T06:36:32;13;;;6.4;;
80868;SDS011;70295;40.182;44.498;2023-07-09T06:38:33;11.8;;;6.9;;
80868;SDS011;70295;40.182;44.498;2023-07-09T06:40:32;9.8;;;6.3;;
80868;SDS011;70295;40.182;44.498;2023-07-09T06:42:32;11.1;;;5.9;;
80868;SDS011;70295;40.182;44.498;2023-07-09T06:44:32;11.3;;;6.3;;
80868;SDS011;70295;40.182;44.498;2023-07-09T06:46:32;12.3;;;6.3;;
80868;SDS011;70295;40.182;44.498;2023-07-09T06:48:32;9.8;;;5.9;;
80868;SDS011;70295;40.182;44.498;2023-07-09T06:50:34;9.7;;;6.1;;
80868;SDS011;70295;40.182;44.498;2023-07-09T06:52:32;10;;;6;;
80868;SDS011;70295;40.182;44.498;2023-07-09T06:54:32;12.3;;;6.5;;
80868;SDS011;70295;40.182;44.498;2023-07-09T06:56:32;9.1;;;5.5;;
80868;SDS011;70295;40.182;44.498;2023-07-09T06:58:33;9.9;;;6.6;;
80868;SDS011;70295;40.182;44.498;2023-07-09T07:00:33;12.4;;;7.1;;
80868;SDS011;70295;40.182;44.498;2023-07-09T07:02:32;11.4;;;6.8;;
80868;SDS011;70295;40.182;44.498;2023-07-09T07:04:32;12;;;6.9;;
80868;SDS011;70295;40.182;44.498;2023-07-09T07:06:32;10.5;;;6.8;;
80868;SDS011;70295;40.182;44.498;2023-07-09T07:08:32;12.5;;;6.6;;
80868;SDS011;70295;40.182;44.498;2023-07-09T07:10:32;10.5;;;6.3;;
80868;SDS011;70295;40.182;44.498;2023-07-09T07:12:40;10.3;;;6.1;;
80868;SDS011;70295;40.182;44.498;2023-07-09T07:14:32;9.4;;;5.9;;
80868;SDS011;70295;40.182;44.498;2023-07-09T07:16:32;10.8;;;6;;
80868;SDS011;70295;40.182;44.498;2023-07-09T07:18:32;9.5;;;5.8;;
80868;SDS011;70295;40.182;44.498;2023-07-09T07:20:32;10.8;;;6.6;;
80868;SDS011;70295;40.182;44.498;2023-07-09T07:22:32;11.5;;;6.6;;
80868;SDS011;70295;40.182;44.498;2023-07-09T07:24:32;9.6;;;6.1;;
80868;SDS011;70295;40.182;44.498;2023-07-09T07:26:32;11.9;;;6;;
80868;SDS011;70295;40.182;44.498;2023-07-09T07:28:34;11.4;;;5.9;;
80868;SDS011;70295;40.182;44.498;2023-07-09T07:30:32;8.7;;;6.1;;
80868;SDS011;70295;40.182;44.498;2023-07-09T07:32:32;11.5;;;5.9;;
80868;SDS011;70295;40.182;44.498;2023-07-09T07:34:32;10.3;;;5.3;;
80868;SDS011;70295;40.182;44.498;2023-07-09T07:36:32;10.3;;;6.2;;
80868;SDS011;70295;40.182;44.498;2023-07-09T07:38:32;11.2;;;5.7;;
80868;SDS011;70295;40.182;44.498;2023-07-09T07:40:32;11;;;5.8;;
80868;SDS011;70295;40.182;44.498;2023-07-09T07:42:32;10.1;;;6;;
80868;SDS011;70295;40.182;44.498;2023-07-09T07:44:32;11.3;;;5.3;;
80868;SDS011;70295;40.182;44.498;2023-07-09T07:46:33;11.6;;;6.3;;
80868;SDS011;70295;40.182;44.498;2023-07-09T07:48:32;10;;;5.9;;
80868;SDS011;70295;40.182;44.498;2023-07-09T07:50:32;11.6;;;6;;
80868;SDS011;70295;40.182;44.498;2023-07-09T07:52:32;10;;;5.5;;
80868;SDS011;70295;40.182;44.498;2023-07-09T07:54:32;10.1;;;5.8;;
80868;SDS011;70295;40.182;44.498;2023-07-09T07:56:32;11.4;;;5.9;;
80868;SDS011;70295;40.182;44.498;2023-07-09T07:58:32;11.7;;;5.6;;
80868;SDS011;70295;40.182;44.498;2023-07-09T08:00:32;10.7;;;5.7;;
80868;SDS011;70295;40.182;44.498;2023-07-09T08:02:32;10;;;5.8;;
80868;SDS011;70295;40.182;44.498;2023-07-09T08:04:32;10.6;;;5.8;;
80868;SDS011;70295;40.182;44.498;2023-07-09T08:06:32;10;;;6.1;;
80868;SDS011;70295;40.182;44.498;2023-07-09T08:08:32;12.3;;;5.6;;
80868;SDS011;70295;40.182;44.498;2023-07-09T08:10:32;11.3;;;6.1;;
80868;SDS011;70295;40.182;44.498;2023-07-09T08:12:32;14;;;5.5;;
80868;SDS011;70295;40.182;44.498;2023-07-09T08:14:32;10.4;;;5.5;;
80868;SDS011;70295;40.182;44.498;2023-07-09T08:16:32;8.8;;;5.5;;
80868;SDS011;70295;40.182;44.498;2023-07-09T08:18:32;10.1;;;5.4;;
80868;SDS011;70295;40.182;44.498;2023-07-09T08:20:32;9.3;;;5.5;;
80868;SDS011;70295;40.182;44.498;2023-07-09T08:22:32;8.9;;;5.4;;
80868;SDS011;70295;40.182;44.498;2023-07-09T08:24:32;9.6;;;5.6;;
80868;SDS011;70295;40.182;44.498;2023-07-09T08:26:32;9.8;;;5.3;;
80868;SDS011;70295;40.182;44.498;2023-07-09T08:28:33;11.3;;;5.5;;
80868;SDS011;70295;40.182;44.498;2023-07-09T08:30:32;9.9;;;6;;
80868;SDS011;70295;40.182;44.498;2023-07-09T08:32:32;11.7;;;6.1;;
80868;SDS011;70295;40.182;44.498;2023-07-09T08:34:32;11.1;;;5.8;;
80868;SDS011;70295;40.182;44.498;2023-07-09T08:36:32;12.6;;;5.8;;
80868;SDS011;70295;40.182;44.498;2023-07-09T08:38:32;11.4;;;5.7;;
80868;SDS011;70295;40.182;44.498;2023-07-09T08:40:32;12.4;;;5.6;;
80868;SDS011;70295;40.182;44.498;2023-07-09T08:42:39;11.4;;;5.7;;
80868;SDS011;70295;40.182;44.498;2023-07-09T08:48:34;11.2;;;5.2;;
80868;SDS011;70295;40.182;44.498;2023-07-09T08:52:36;11.6;;;5.7;;
80868;SDS011;70295;40.182;44.498;2023-07-09T08:54:34;9.7;;;5;;
80868;SDS011;70295;40.182;44.498;2023-07-09T08:56:34;12;;;5.9;;
80868;SDS011;70295;40.182;44.498;2023-07-09T08:58:33;10.3;;;5.2;;
80868;SDS011;70295;40.182;44.498;2023-07-09T09:00:35;9.8;;;5.7;;
80868;SDS011;70295;40.182;44.498;2023-07-09T09:04:34;10.1;;;5.7;;
80868;SDS011;70295;40.182;44.498;2023-07-09T09:06:33;8.5;;;5.3;;
80868;SDS011;70295;40.182;44.498;2023-07-09T09:10:42;11.2;;;5.8;;
80868;SDS011;70295;40.182;44.498;2023-07-09T09:12:36;12.4;;;5.6;;
80868;SDS011;70295;40.182;44.498;2023-07-09T09:14:35;11.2;;;5.5;;
80868;SDS011;70295;40.182;44.498;2023-07-09T09:16:35;13.2;;;5.3;;
80868;SDS011;70295;40.182;44.498;2023-07-09T09:18:37;13.7;;;5.7;;
80868;SDS011;70295;40.182;44.498;2023-07-09T09:20:32;11.4;;;5.8;;
80868;SDS011;70295;40.182;44.498;2023-07-09T09:26:34;11.6;;;5.7;;
80868;SDS011;70295;40.182;44.498;2023-07-09T09:28:38;10.1;;;5.2;;
80868;SDS011;70295;40.182;44.498;2023-07-09T09:30:32;9.4;;;5.3;;
80868;SDS011;70295;40.182;44.498;2023-07-09T09:34:32;10.3;;;4.7;;
80868;SDS011;70295;40.182;44.498;2023-07-09T09:36:32;9.9;;;5.2;;
80868;SDS011;70295;40.182;44.498;2023-07-09T09:38:32;7.7;;;4.9;;
80868;SDS011;70295;40.182;44.498;2023-07-09T09:40:34;8.3;;;4.8;;
80868;SDS011;70295;40.182;44.498;2023-07-09T09:42:32;11.6;;;5.6;;
80868;SDS011;70295;40.182;44.498;2023-07-09T09:44:32;8.8;;;5.3;;
80868;SDS011;70295;40.182;44.498;2023-07-09T09:46:34;10;;;4.7;;
80868;SDS011;70295;40.182;44.498;2023-07-09T09:48:33;11;;;5.2;;
80868;SDS011;70295;40.182;44.498;2023-07-09T09:50:34;8;;;5.1;;
80868;SDS011;70295;40.182;44.498;2023-07-09T09:52:33;8.5;;;5;;
80868;SDS011;70295;40.182;44.498;2023-07-09T09:54:33;8.4;;;4.9;;
80868;SDS011;70295;40.182;44.498;2023-07-09T09:56:34;10.8;;;5.7;;
80868;SDS011;70295;40.182;44.498;2023-07-09T09:58:32;10.7;;;5.4;;
80868;SDS011;70295;40.182;44.498;2023-07-09T10:00:32;10.2;;;5.5;;
80868;SDS011;70295;40.182;44.498;2023-07-09T10:02:37;8.5;;;5.1;;
80868;SDS011;70295;40.182;44.498;2023-07-09T10:04:32;9.9;;;5.4;;
80868;SDS011;70295;40.182;44.498;2023-07-09T10:10:34;9.6;;;5;;
80868;SDS011;70295;40.182;44.498;2023-07-09T10:16:34;12.1;;;5.6;;
80868;SDS011;70295;40.182;44.498;2023-07-09T10:20:35;12.9;;;5.4;;
80868;SDS011;70295;40.182;44.498;2023-07-09T10:24:37;9.7;;;5.2;;
80868;SDS011;70295;40.182;44.498;2023-07-09T10:28:38;11.1;;;5.7;;
80868;SDS011;70295;40.182;44.498;2023-07-09T10:40:36;10.4;;;5.6;;
80868;SDS011;70295;40.182;44.498;2023-07-09T10:46:34;10.8;;;5.1;;
80868;SDS011;70295;40.182;44.498;2023-07-09T10:48:36;9.7;;;5;;
80868;SDS011;70295;40.182;44.498;2023-07-09T10:50:34;8.7;;;4.7;;
80868;SDS011;70295;40.182;44.498;2023-07-09T10:52:34;8.2;;;4.6;;
80868;SDS011;70295;40.182;44.498;2023-07-09T10:56:34;8.4;;;5.1;;
80868;SDS011;70295;40.182;44.498;2023-07-09T11:00:34;12.6;;;5;;
80868;SDS011;70295;40.182;44.498;2023-07-09T11:02:33;8.7;;;4.8;;
80868;SDS011;70295;40.182;44.498;2023-07-09T11:04:35;9.7;;;5;;
80868;SDS011;70295;40.182;44.498;2023-07-09T11:08:34;9.1;;;4.3;;
80868;SDS011;70295;40.182;44.498;2023-07-09T11:18:34;10.2;;;4.8;;
80868;SDS011;70295;40.182;44.498;2023-07-09T11:20:35;9.4;;;4.9;;
80868;SDS011;70295;40.182;44.498;2023-07-09T11:24:44;8.2;;;4.5;;
80868;SDS011;70295;40.182;44.498;2023-07-09T11:26:34;11;;;5.2;;
80868;SDS011;70295;40.182;44.498;2023-07-09T11:28:34;11.4;;;4.8;;
80868;SDS011;70295;40.182;44.498;2023-07-09T11:30:32;9.1;;;4.9;;
80868;SDS011;70295;40.182;44.498;2023-07-09T11:32:32;8.4;;;4.7;;
80868;SDS011;70295;40.182;44.498;2023-07-09T11:34:32;9;;;4.5;;
80868;SDS011;70295;40.182;44.498;2023-07-09T11:36:33;10.9;;;5.7;;
80868;SDS011;70295;40.182;44.498;2023-07-09T11:40:32;11.9;;;5.1;;
80868;SDS011;70295;40.182;44.498;2023-07-09T11:42:34;9.5;;;5.2;;
80868;SDS011;70295;40.182;44.498;2023-07-09T11:44:33;12.1;;;5;;
80868;SDS011;70295;40.182;44.498;2023-07-09T11:46:33;10.4;;;5.1;;
80868;SDS011;70295;40.182;44.498;2023-07-09T11:48:33;10;;;4.6;;
80868;SDS011;70295;40.182;44.498;2023-07-09T11:52:34;7;;;5.2;;
80868;SDS011;70295;40.182;44.498;2023-07-09T11:54:38;8.9;;;4.4;;
80868;SDS011;70295;40.182;44.498;2023-07-09T11:56:32;9.7;;;4.9;;
80868;SDS011;70295;40.182;44.498;2023-07-09T11:58:32;7.7;;;4.6;;
80868;SDS011;70295;40.182;44.498;2023-07-09T12:02:33;9.3;;;5.3;;
80868;SDS011;70295;40.182;44.498;2023-07-09T12:04:34;10;;;5.1;;
80868;SDS011;70295;40.182;44.498;2023-07-09T12:06:34;10.5;;;5;;
80868;SDS011;70295;40.182;44.498;2023-07-09T12:10:34;10.5;;;5.1;;
80868;SDS011;70295;40.182;44.498;2023-07-09T12:12:32;8.9;;;5.1;;
80868;SDS011;70295;40.182;44.498;2023-07-09T12:14:32;14.6;;;5.1;;
80868;SDS011;70295;40.182;44.498;2023-07-09T12:16:34;9.7;;;5;;
80868;SDS011;70295;40.182;44.498;2023-07-09T12:18:32;11.8;;;4.9;;
80868;SDS011;70295;40.182;44.498;2023-07-09T12:20:34;11;;;4.9;;
80868;SDS011;70295;40.182;44.498;2023-07-09T12:22:32;10.2;;;4.8;;
80868;SDS011;70295;40.182;44.498;2023-07-09T12:26:33;9.7;;;5.3;;
80868;SDS011;70295;40.182;44.498;2023-07-09T12:28:32;9.7;;;4.7;;
80868;SDS011;70295;40.182;44.498;2023-07-09T12:30:33;8.3;;;4.9;;
80868;SDS011;70295;40.182;44.498;2023-07-09T12:32:32;11.3;;;5;;
80868;SDS011;70295;40.182;44.498;2023-07-09T12:34:33;8.6;;;4.8;;
80868;SDS011;70295;40.182;44.498;2023-07-09T12:36:32;11.5;;;4.9;;
80868;SDS011;70295;40.182;44.498;2023-07-09T12:38:40;10.2;;;4.7;;
80868;SDS011;70295;40.182;44.498;2023-07-09T12:40:32;14.3;;;5;;
80868;SDS011;70295;40.182;44.498;2023-07-09T12:42:34;10.6;;;4.9;;
80868;SDS011;70295;40.182;44.498;2023-07-09T12:44:35;9.8;;;5.1;;
80868;SDS011;70295;40.182;44.498;2023-07-09T12:46:32;11.1;;;5.1;;
80868;SDS011;70295;40.182;44.498;2023-07-09T12:48:32;9;;;4.6;;
80868;SDS011;70295;40.182;44.498;2023-07-09T12:50:34;11.4;;;4.9;;
80868;SDS011;70295;40.182;44.498;2023-07-09T12:52:32;11.8;;;5;;
80868;SDS011;70295;40.182;44.498;2023-07-09T12:54:32;9.3;;;5;;
80868;SDS011;70295;40.182;44.498;2023-07-09T12:56:33;10.8;;;5.4;;
80868;SDS011;70295;40.182;44.498;2023-07-09T12:58:36;14.2;;;6;;
80868;SDS011;70295;40.182;44.498;2023-07-09T13:00:32;12.4;;;5.2;;
80868;SDS011;70295;40.182;44.498;2023-07-09T13:02:37;7.4;;;5;;
80868;SDS011;70295;40.182;44.498;2023-07-09T13:04:35;12.5;;;4.9;;
80868;SDS011;70295;40.182;44.498;2023-07-09T13:06:38;9.6;;;4.9;;
80868;SDS011;70295;40.182;44.498;2023-07-09T13:08:40;10.7;;;5;;
80868;SDS011;70295;40.182;44.498;2023-07-09T13:10:41;9.5;;;5.2;;
80868;SDS011;70295;40.182;44.498;2023-07-09T13:12:33;9;;;5.6;;
80868;SDS011;70295;40.182;44.498;2023-07-09T13:14:33;11;;;5.3;;
80868;SDS011;70295;40.182;44.498;2023-07-09T13:18:31;8.5;;;4.6;;
80868;SDS011;70295;40.182;44.498;2023-07-09T13:20:34;9.2;;;4.6;;
80868;SDS011;70295;40.182;44.498;2023-07-09T13:22:31;9;;;4.7;;
80868;SDS011;70295;40.182;44.498;2023-07-09T13:24:33;10.4;;;5;;
80868;SDS011;70295;40.182;44.498;2023-07-09T13:26:32;11.1;;;5.5;;
80868;SDS011;70295;40.182;44.498;2023-07-09T13:28:33;13;;;6.5;;
80868;SDS011;70295;40.182;44.498;2023-07-09T13:30:31;14;;;7.6;;
80868;SDS011;70295;40.182;44.498;2023-07-09T13:32:32;15.2;;;6.3;;